< VanCam Weather - Nearby METAR Reports

Nearby METAR Reports

 

KPDX - Portland Intl
Distance from station: SW 8.9mi, 14.3km
Updated: 04/25/2018 12:53pm
Few Clouds
Few Clouds
 Wind from W
Wind: W 7 mph , 11 km/h
Temperature: 73°F , 23°C
Dew Point: 37°F , 3°C
Humidity: 27%
Barometer: 30.04 inHg , 1017.3 hPa
Clouds: Few Clouds
Visibility: 10 miles , 16 km
Cloud details: Few Clouds 30000 ft
2018/04/25 19:53 KPDX 251953Z 28006KT 10SM FEW300 23/03 A3004 RMK AO2 SLP173 T02330033
KVUO - Vancouver
Distance from station: W 10.7mi, 17.2km
Updated: 04/25/2018 12:53pm
Clear
Clear
 Wind from W
Wind: W 8 mph , 13 km/h
Temperature: 73°F , 23°C
Dew Point: 45°F , 7°C
Humidity: 36%
Barometer: 30.04 inHg , 1017.3 hPa
Clouds: Clear
Visibility: 10 miles , 16 km
2018/04/25 19:53 KVUO 251953Z AUTO 26007KT 10SM CLR 23/07 A3004 RMK AO2 SLP172 T02280067
 
KTTD - Troutdale
Distance from station: SSE 8.1mi, 13km
Updated: 04/25/2018 12:53pm
Clear
Clear
 Wind from varies
Wind: varies 5 mph , 7 km/h
Temperature: 75°F , 24°C
Dew Point: 45°F , 7°C
Humidity: 34%
Barometer: 30.04 inHg , 1017.3 hPa
Clouds: Clear
Visibility: 10 miles , 16 km
2018/04/25 19:53 KTTD 251953Z VRB04KT 10SM CLR 24/07 A3004 RMK AO2 SLP171 T02390067
KSPB - Scappoose
Distance from station: WSW 21.6mi, 34.8km
Updated: 04/25/2018 12:53pm
Clear
Clear
 Wind from calm
Wind: Calm
Temperature: 75°F , 24°C
Dew Point: 46°F , 8°C
Humidity: 36%
Barometer: 30.03 inHg , 1016.9 hPa
Clouds: Clear
Visibility: 10 miles , 16 km
2018/04/25 19:53 KSPB 251953Z AUTO 00000KT 10SM CLR 24/08 A3003 RMK AO2 SLP170 T02440083
 
KHIO - Hillsboro
Distance from station: SW 25.8mi, 41.5km
Updated: 04/25/2018 12:53pm
Clear
Clear
 Wind from calm
Wind: Calm
Temperature: 75°F , 24°C
Dew Point: 43°F , 6°C
Humidity: 31%
Barometer: 30.04 inHg , 1017.3 hPa
Clouds: Clear
Visibility: 10 miles , 16 km
2018/04/25 19:53 KHIO 251953Z 00000KT 10SM CLR 24/06 A3004 RMK AO2 SLP171 T02440061
KDLS - The Dalles
Distance from station: E 61.4mi, 98.8km
Updated: 04/25/2018 12:53pm
Clear
Clear
 Wind from calm
Wind: Calm
Temperature: 75°F , 24°C
Dew Point: 39°F , 4°C
Humidity: 27%
Barometer: 30.09 inHg , 1019 hPa
Clouds: Clear
Visibility: 10 miles , 16 km
2018/04/25 19:53 KDLS 251953Z AUTO 00000KT 10SM CLR 24/04 A3009 RMK AO2 SLP186 T02390039
 
KAST - Astoria
Distance from station: WNW 77.2mi, 124.2km
Updated: 04/25/2018 12:55pm
Clear
Clear
 Wind from W
Wind: W 10 mph , 17 km/h
Temperature: 63°F , 17°C
Dew Point: 52°F , 11°C
Humidity: 68%
Barometer: 30.07 inHg , 1018.3 hPa
Clouds: Clear
Visibility: 10 miles , 16 km
2018/04/25 19:55 KAST 251955Z AUTO 28009KT 10SM CLR 17/11 A3007 RMK AO2 SLP181 T01720111
KONP - Newport
Distance from station: SW 106mi, 170.4km
Updated: 04/25/2018 1:15pm
Overcast
Overcast
 Wind from W
Wind: W 7 mph , 11 km/h
Temperature: 52°F , 11°C
Dew Point: 50°F , 10°C
Humidity: 94%
Barometer: 30.10 inHg , 1019.3 hPa
Clouds: Overcast
Visibility: 7 miles , 11 km
Cloud details: Overcast 500 ft
2018/04/25 20:15 KONP 252015Z AUTO 26006KT 7SM OVC005 11/10 A3010 RMK AO2